sensor_id;sensor_type;location;lat;lon;timestamp;temperature;humidity
76897;SHT30;65856;52.178;21.176;2023-12-22T00:02:07;5.89;83.80
76897;SHT30;65856;52.178;21.176;2023-12-22T00:04:32;5.88;83.72
76897;SHT30;65856;52.178;21.176;2023-12-22T00:06:57;5.89;83.62
76897;SHT30;65856;52.178;21.176;2023-12-22T00:09:23;5.87;83.40
76897;SHT30;65856;52.178;21.176;2023-12-22T00:11:48;5.84;83.28
76897;SHT30;65856;52.178;21.176;2023-12-22T00:14:14;5.84;83.16
76897;SHT30;65856;52.178;21.176;2023-12-22T00:16:39;5.83;83.04
76897;SHT30;65856;52.178;21.176;2023-12-22T00:19:04;5.83;82.70
76897;SHT30;65856;52.178;21.176;2023-12-22T00:21:30;5.82;82.50
76897;SHT30;65856;52.178;21.176;2023-12-22T00:23:56;5.80;82.08
76897;SHT30;65856;52.178;21.176;2023-12-22T00:26:22;5.80;82.10
76897;SHT30;65856;52.178;21.176;2023-12-22T00:28:47;5.78;81.88
76897;SHT30;65856;52.178;21.176;2023-12-22T00:31:13;5.78;81.79
76897;SHT30;65856;52.178;21.176;2023-12-22T00:33:38;5.77;81.70
76897;SHT30;65856;52.178;21.176;2023-12-22T00:36:04;5.76;81.62
76897;SHT30;65856;52.178;21.176;2023-12-22T00:38:29;5.75;81.68
76897;SHT30;65856;52.178;21.176;2023-12-22T00:40:56;5.76;81.78
76897;SHT30;65856;52.178;21.176;2023-12-22T00:43:21;5.74;81.66
76897;SHT30;65856;52.178;21.176;2023-12-22T00:45:47;5.75;81.64
76897;SHT30;65856;52.178;21.176;2023-12-22T00:48:12;5.73;81.42
76897;SHT30;65856;52.178;21.176;2023-12-22T00:50:38;5.73;81.39
76897;SHT30;65856;52.178;21.176;2023-12-22T00:53:03;5.72;81.37
76897;SHT30;65856;52.178;21.176;2023-12-22T00:55:28;5.72;81.10
76897;SHT30;65856;52.178;21.176;2023-12-22T00:57:54;5.72;80.95
76897;SHT30;65856;52.178;21.176;2023-12-22T01:00:19;5.70;80.87
76897;SHT30;65856;52.178;21.176;2023-12-22T01:02:45;5.69;80.81
76897;SHT30;65856;52.178;21.176;2023-12-22T01:05:10;5.67;80.64
76897;SHT30;65856;52.178;21.176;2023-12-22T01:07:35;5.66;80.44
76897;SHT30;65856;52.178;21.176;2023-12-22T01:10:01;5.64;80.40
76897;SHT30;65856;52.178;21.176;2023-12-22T01:12:28;5.63;80.29
76897;SHT30;65856;52.178;21.176;2023-12-22T01:14:55;5.63;80.35
76897;SHT30;65856;52.178;21.176;2023-12-22T01:17:21;5.62;80.24
76897;SHT30;65856;52.178;21.176;2023-12-22T01:19:47;5.61;79.94
76897;SHT30;65856;52.178;21.176;2023-12-22T01:22:12;5.59;79.63
76897;SHT30;65856;52.178;21.176;2023-12-22T01:24:38;5.59;79.66
76897;SHT30;65856;52.178;21.176;2023-12-22T01:27:06;5.58;79.49
76897;SHT30;65856;52.178;21.176;2023-12-22T01:29:32;5.56;79.58
76897;SHT30;65856;52.178;21.176;2023-12-22T01:31:57;5.52;79.07
76897;SHT30;65856;52.178;21.176;2023-12-22T01:34:23;5.51;79.03
76897;SHT30;65856;52.178;21.176;2023-12-22T01:36:48;5.50;78.82
76897;SHT30;65856;52.178;21.176;2023-12-22T01:39:14;5.50;78.37
76897;SHT30;65856;52.178;21.176;2023-12-22T01:41:40;5.48;78.25
76897;SHT30;65856;52.178;21.176;2023-12-22T01:44:06;5.49;78.36
76897;SHT30;65856;52.178;21.176;2023-12-22T01:46:32;5.49;78.19
76897;SHT30;65856;52.178;21.176;2023-12-22T01:48:59;5.48;78.11
76897;SHT30;65856;52.178;21.176;2023-12-22T01:51:27;5.48;77.82
76897;SHT30;65856;52.178;21.176;2023-12-22T01:53:54;5.48;77.78
76897;SHT30;65856;52.178;21.176;2023-12-22T01:56:20;5.48;77.69
76897;SHT30;65856;52.178;21.176;2023-12-22T01:58:45;5.49;77.64
76897;SHT30;65856;52.178;21.176;2023-12-22T02:01:11;5.51;77.30
76897;SHT30;65856;52.178;21.176;2023-12-22T02:03:38;5.52;77.26
76897;SHT30;65856;52.178;21.176;2023-12-22T02:06:04;5.52;77.29
76897;SHT30;65856;52.178;21.176;2023-12-22T02:08:31;5.52;76.95
76897;SHT30;65856;52.178;21.176;2023-12-22T02:10:58;5.50;76.71
76897;SHT30;65856;52.178;21.176;2023-12-22T02:13:23;5.50;76.83
76897;SHT30;65856;52.178;21.176;2023-12-22T02:15:51;5.50;76.69
76897;SHT30;65856;52.178;21.176;2023-12-22T02:18:33;5.49;76.66
76897;SHT30;65856;52.178;21.176;2023-12-22T02:21:00;5.46;76.55
76897;SHT30;65856;52.178;21.176;2023-12-22T02:23:25;5.45;76.56
76897;SHT30;65856;52.178;21.176;2023-12-22T02:25:52;5.44;76.47
76897;SHT30;65856;52.178;21.176;2023-12-22T02:28:31;5.45;76.27
76897;SHT30;65856;52.178;21.176;2023-12-22T02:31:16;5.47;76.14
76897;SHT30;65856;52.178;21.176;2023-12-22T02:33:43;5.47;76.13
76897;SHT30;65856;52.178;21.176;2023-12-22T02:36:09;5.47;76.10
76897;SHT30;65856;52.178;21.176;2023-12-22T02:38:36;5.49;76.02
76897;SHT30;65856;52.178;21.176;2023-12-22T02:41:03;5.50;76.18
76897;SHT30;65856;52.178;21.176;2023-12-22T02:43:29;5.51;76.12
76897;SHT30;65856;52.178;21.176;2023-12-22T02:45:54;5.52;75.77
76897;SHT30;65856;52.178;21.176;2023-12-22T02:48:20;5.51;75.70
76897;SHT30;65856;52.178;21.176;2023-12-22T02:50:45;5.52;75.90
76897;SHT30;65856;52.178;21.176;2023-12-22T02:53:10;5.52;75.78
76897;SHT30;65856;52.178;21.176;2023-12-22T02:55:36;5.53;75.93
76897;SHT30;65856;52.178;21.176;2023-12-22T02:58:01;5.56;75.87
76897;SHT30;65856;52.178;21.176;2023-12-22T03:00:27;5.56;75.96
76897;SHT30;65856;52.178;21.176;2023-12-22T03:02:52;5.60;76.04
76897;SHT30;65856;52.178;21.176;2023-12-22T03:05:17;5.60;75.72
76897;SHT30;65856;52.178;21.176;2023-12-22T03:07:43;5.60;75.57
76897;SHT30;65856;52.178;21.176;2023-12-22T03:10:08;5.59;75.54
76897;SHT30;65856;52.178;21.176;2023-12-22T03:12:34;5.61;75.31
76897;SHT30;65856;52.178;21.176;2023-12-22T03:14:59;5.61;74.99
76897;SHT30;65856;52.178;21.176;2023-12-22T03:17:24;5.61;75.01
76897;SHT30;65856;52.178;21.176;2023-12-22T03:19:50;5.62;74.79
76897;SHT30;65856;52.178;21.176;2023-12-22T03:22:16;5.61;74.30
76897;SHT30;65856;52.178;21.176;2023-12-22T03:24:41;5.59;73.95
76897;SHT30;65856;52.178;21.176;2023-12-22T03:27:06;5.57;74.19
76897;SHT30;65856;52.178;21.176;2023-12-22T03:29:32;5.55;74.53
76897;SHT30;65856;52.178;21.176;2023-12-22T03:31:57;5.53;74.97
76897;SHT30;65856;52.178;21.176;2023-12-22T03:34:23;5.51;75.36
76897;SHT30;65856;52.178;21.176;2023-12-22T03:36:48;5.49;75.42
76897;SHT30;65856;52.178;21.176;2023-12-22T03:39:14;5.45;75.39
76897;SHT30;65856;52.178;21.176;2023-12-22T03:41:40;5.43;75.49
76897;SHT30;65856;52.178;21.176;2023-12-22T03:44:06;5.41;75.69
76897;SHT30;65856;52.178;21.176;2023-12-22T03:46:32;5.41;75.73
76897;SHT30;65856;52.178;21.176;2023-12-22T03:48:57;5.38;75.89
76897;SHT30;65856;52.178;21.176;2023-12-22T03:51:23;5.36;75.94
76897;SHT30;65856;52.178;21.176;2023-12-22T03:53:48;5.36;76.10
76897;SHT30;65856;52.178;21.176;2023-12-22T03:56:14;5.35;76.09
76897;SHT30;65856;52.178;21.176;2023-12-22T03:58:39;5.35;75.81
76897;SHT30;65856;52.178;21.176;2023-12-22T04:01:05;5.32;75.93
76897;SHT30;65856;52.178;21.176;2023-12-22T04:03:32;5.33;75.97
76897;SHT30;65856;52.178;21.176;2023-12-22T04:06:01;5.31;75.82
76897;SHT30;65856;52.178;21.176;2023-12-22T04:08:28;5.29;75.86
76897;SHT30;65856;52.178;21.176;2023-12-22T04:10:53;5.26;76.08
76897;SHT30;65856;52.178;21.176;2023-12-22T04:13:18;5.24;76.26
76897;SHT30;65856;52.178;21.176;2023-12-22T04:15:44;5.24;76.18
76897;SHT30;65856;52.178;21.176;2023-12-22T04:18:09;5.22;76.00
76897;SHT30;65856;52.178;21.176;2023-12-22T04:20:34;5.22;76.04
76897;SHT30;65856;52.178;21.176;2023-12-22T04:23:00;5.23;76.07
76897;SHT30;65856;52.178;21.176;2023-12-22T04:25:25;5.23;76.08
76897;SHT30;65856;52.178;21.176;2023-12-22T04:27:51;5.22;76.08
76897;SHT30;65856;52.178;21.176;2023-12-22T04:30:17;5.20;76.23
76897;SHT30;65856;52.178;21.176;2023-12-22T04:32:42;5.20;76.32
76897;SHT30;65856;52.178;21.176;2023-12-22T04:35:08;5.20;76.09
76897;SHT30;65856;52.178;21.176;2023-12-22T04:37:33;5.19;76.09
76897;SHT30;65856;52.178;21.176;2023-12-22T04:39:59;5.19;76.05
76897;SHT30;65856;52.178;21.176;2023-12-22T04:42:24;5.17;75.88
76897;SHT30;65856;52.178;21.176;2023-12-22T04:44:50;5.18;75.78
76897;SHT30;65856;52.178;21.176;2023-12-22T04:47:16;5.17;75.59
76897;SHT30;65856;52.178;21.176;2023-12-22T04:49:42;5.17;75.55
76897;SHT30;65856;52.178;21.176;2023-12-22T04:52:07;5.16;75.31
76897;SHT30;65856;52.178;21.176;2023-12-22T04:54:33;5.16;75.33
76897;SHT30;65856;52.178;21.176;2023-12-22T04:56:58;5.14;75.45
76897;SHT30;65856;52.178;21.176;2023-12-22T04:59:24;5.12;75.66
76897;SHT30;65856;52.178;21.176;2023-12-22T05:01:49;5.11;75.71
76897;SHT30;65856;52.178;21.176;2023-12-22T05:04:14;5.08;76.04
76897;SHT30;65856;52.178;21.176;2023-12-22T05:06:40;5.05;76.24
76897;SHT30;65856;52.178;21.176;2023-12-22T05:09:05;5.04;76.36
76897;SHT30;65856;52.178;21.176;2023-12-22T05:11:31;5.02;76.39
76897;SHT30;65856;52.178;21.176;2023-12-22T05:13:56;5.00;76.55
76897;SHT30;65856;52.178;21.176;2023-12-22T05:16:22;4.98;76.80
76897;SHT30;65856;52.178;21.176;2023-12-22T05:18:47;4.95;76.97
76897;SHT30;65856;52.178;21.176;2023-12-22T05:21:13;4.88;77.11
76897;SHT30;65856;52.178;21.176;2023-12-22T05:23:39;4.81;77.13
76897;SHT30;65856;52.178;21.176;2023-12-22T05:26:04;4.77;77.02
76897;SHT30;65856;52.178;21.176;2023-12-22T05:28:30;4.75;77.05
76897;SHT30;65856;52.178;21.176;2023-12-22T05:30:55;4.72;77.03
76897;SHT30;65856;52.178;21.176;2023-12-22T05:33:21;4.72;77.11
76897;SHT30;65856;52.178;21.176;2023-12-22T05:35:46;4.71;77.08
76897;SHT30;65856;52.178;21.176;2023-12-22T05:38:12;4.74;77.12
76897;SHT30;65856;52.178;21.176;2023-12-22T05:40:37;4.74;77.01
76897;SHT30;65856;52.178;21.176;2023-12-22T05:43:02;4.75;77.07
76897;SHT30;65856;52.178;21.176;2023-12-22T05:45:28;4.76;77.14
76897;SHT30;65856;52.178;21.176;2023-12-22T05:47:53;4.75;76.99
76897;SHT30;65856;52.178;21.176;2023-12-22T05:50:19;4.73;77.20
76897;SHT30;65856;52.178;21.176;2023-12-22T05:52:44;4.73;77.22
76897;SHT30;65856;52.178;21.176;2023-12-22T05:55:10;4.73;77.21
76897;SHT30;65856;52.178;21.176;2023-12-22T05:57:36;4.75;77.34
76897;SHT30;65856;52.178;21.176;2023-12-22T06:00:01;4.75;77.34
76897;SHT30;65856;52.178;21.176;2023-12-22T06:02:32;4.74;77.42
76897;SHT30;65856;52.178;21.176;2023-12-22T06:04:58;4.74;77.62
76897;SHT30;65856;52.178;21.176;2023-12-22T06:07:24;4.79;77.57
76897;SHT30;65856;52.178;21.176;2023-12-22T06:09:50;4.78;77.45
76897;SHT30;65856;52.178;21.176;2023-12-22T06:12:16;4.78;77.38
76897;SHT30;65856;52.178;21.176;2023-12-22T06:14:41;4.77;77.31
76897;SHT30;65856;52.178;21.176;2023-12-22T06:17:07;4.75;77.32
76897;SHT30;65856;52.178;21.176;2023-12-22T06:19:32;4.75;77.33
76897;SHT30;65856;52.178;21.176;2023-12-22T06:21:58;4.74;77.26
76897;SHT30;65856;52.178;21.176;2023-12-22T06:24:25;4.72;77.01
76897;SHT30;65856;52.178;21.176;2023-12-22T06:26:50;4.74;76.90
76897;SHT30;65856;52.178;21.176;2023-12-22T06:29:15;4.76;76.71
76897;SHT30;65856;52.178;21.176;2023-12-22T06:31:41;4.75;76.10
76897;SHT30;65856;52.178;21.176;2023-12-22T06:34:06;4.73;75.99
76897;SHT30;65856;52.178;21.176;2023-12-22T06:36:31;4.74;75.80
76897;SHT30;65856;52.178;21.176;2023-12-22T06:38:57;4.74;74.97
76897;SHT30;65856;52.178;21.176;2023-12-22T06:41:29;4.75;74.41
76897;SHT30;65856;52.178;21.176;2023-12-22T06:43:58;4.77;74.02
76897;SHT30;65856;52.178;21.176;2023-12-22T06:46:26;4.81;74.34
76897;SHT30;65856;52.178;21.176;2023-12-22T06:48:53;4.88;73.89
76897;SHT30;65856;52.178;21.176;2023-12-22T06:51:23;4.90;72.95
76897;SHT30;65856;52.178;21.176;2023-12-22T06:53:52;4.91;72.03
76897;SHT30;65856;52.178;21.176;2023-12-22T06:56:19;4.91;71.44
76897;SHT30;65856;52.178;21.176;2023-12-22T06:58:45;4.93;70.84
76897;SHT30;65856;52.178;21.176;2023-12-22T07:01:23;4.93;70.48
76897;SHT30;65856;52.178;21.176;2023-12-22T07:03:56;4.94;69.03
76897;SHT30;65856;52.178;21.176;2023-12-22T07:06:23;4.95;68.23
76897;SHT30;65856;52.178;21.176;2023-12-22T07:11:41;4.95;67.84
76897;SHT30;65856;52.178;21.176;2023-12-22T07:14:15;4.95;67.27
76897;SHT30;65856;52.178;21.176;2023-12-22T07:16:41;4.93;66.68
76897;SHT30;65856;52.178;21.176;2023-12-22T07:19:10;4.91;66.77
76897;SHT30;65856;52.178;21.176;2023-12-22T07:21:38;4.90;66.93
76897;SHT30;65856;52.178;21.176;2023-12-22T07:24:07;4.89;67.08
76897;SHT30;65856;52.178;21.176;2023-12-22T07:26:33;4.87;67.18
76897;SHT30;65856;52.178;21.176;2023-12-22T07:28:58;4.87;66.82
76897;SHT30;65856;52.178;21.176;2023-12-22T07:31:24;4.87;66.91
76897;SHT30;65856;52.178;21.176;2023-12-22T07:33:50;4.85;66.30
76897;SHT30;65856;52.178;21.176;2023-12-22T07:36:16;4.84;66.85
76897;SHT30;65856;52.178;21.176;2023-12-22T07:38:43;4.84;66.95
76897;SHT30;65856;52.178;21.176;2023-12-22T07:41:09;4.84;66.68
76897;SHT30;65856;52.178;21.176;2023-12-22T07:43:34;4.85;66.68
76897;SHT30;65856;52.178;21.176;2023-12-22T07:46:00;4.85;66.66
76897;SHT30;65856;52.178;21.176;2023-12-22T07:48:25;4.87;66.53
76897;SHT30;65856;52.178;21.176;2023-12-22T07:50:50;4.88;66.58
76897;SHT30;65856;52.178;21.176;2023-12-22T07:53:16;4.91;65.69
76897;SHT30;65856;52.178;21.176;2023-12-22T07:55:42;4.93;65.89
76897;SHT30;65856;52.178;21.176;2023-12-22T07:58:08;4.94;65.89
76897;SHT30;65856;52.178;21.176;2023-12-22T08:00:34;4.92;65.70
76897;SHT30;65856;52.178;21.176;2023-12-22T08:02:59;4.88;65.25
76897;SHT30;65856;52.178;21.176;2023-12-22T08:05:25;4.87;66.22
76897;SHT30;65856;52.178;21.176;2023-12-22T08:07:51;5.11;66.84
76897;SHT30;65856;52.178;21.176;2023-12-22T08:10:17;5.11;64.39
76897;SHT30;65856;52.178;21.176;2023-12-22T08:12:42;5.13;64.06
76897;SHT30;65856;52.178;21.176;2023-12-22T08:15:08;5.24;63.56
76897;SHT30;65856;52.178;21.176;2023-12-22T08:17:37;5.35;63.14
76897;SHT30;65856;52.178;21.176;2023-12-22T08:20:10;5.47;62.71
76897;SHT30;65856;52.178;21.176;2023-12-22T08:22:35;5.60;62.23
76897;SHT30;65856;52.178;21.176;2023-12-22T08:25:01;5.72;61.09
76897;SHT30;65856;52.178;21.176;2023-12-22T08:27:26;5.77;61.29
76897;SHT30;65856;52.178;21.176;2023-12-22T08:29:52;5.77;61.74
76897;SHT30;65856;52.178;21.176;2023-12-22T08:32:17;5.77;62.06
76897;SHT30;65856;52.178;21.176;2023-12-22T08:34:44;5.73;61.58
76897;SHT30;65856;52.178;21.176;2023-12-22T08:37:10;5.70;61.71
76897;SHT30;65856;52.178;21.176;2023-12-22T08:39:35;5.80;62.22
76897;SHT30;65856;52.178;21.176;2023-12-22T08:42:01;5.98;62.24
76897;SHT30;65856;52.178;21.176;2023-12-22T08:44:27;6.10;62.31
76897;SHT30;65856;52.178;21.176;2023-12-22T08:46:52;6.20;61.93
76897;SHT30;65856;52.178;21.176;2023-12-22T08:49:17;6.28;61.96
76897;SHT30;65856;52.178;21.176;2023-12-22T08:51:43;6.41;62.24
76897;SHT30;65856;52.178;21.176;2023-12-22T08:54:08;6.47;61.69
76897;SHT30;65856;52.178;21.176;2023-12-22T08:56:34;6.51;61.91
76897;SHT30;65856;52.178;21.176;2023-12-22T08:59:00;6.61;61.90
76897;SHT30;65856;52.178;21.176;2023-12-22T09:01:26;6.71;62.07
76897;SHT30;65856;52.178;21.176;2023-12-22T09:03:51;6.76;61.94
76897;SHT30;65856;52.178;21.176;2023-12-22T09:06:18;6.76;61.81
76897;SHT30;65856;52.178;21.176;2023-12-22T09:08:46;6.86;62.15
76897;SHT30;65856;52.178;21.176;2023-12-22T09:11:13;6.96;61.59
76897;SHT30;65856;52.178;21.176;2023-12-22T09:13:41;6.99;61.47
76897;SHT30;65856;52.178;21.176;2023-12-22T09:16:07;7.06;61.65
76897;SHT30;65856;52.178;21.176;2023-12-22T09:18:34;7.18;61.74
76897;SHT30;65856;52.178;21.176;2023-12-22T09:21:00;7.30;61.57
76897;SHT30;65856;52.178;21.176;2023-12-22T09:23:25;7.37;61.11
76897;SHT30;65856;52.178;21.176;2023-12-22T09:25:51;7.42;61.19
76897;SHT30;65856;52.178;21.176;2023-12-22T09:28:16;7.47;61.11
76897;SHT30;65856;52.178;21.176;2023-12-22T09:30:42;7.49;60.72
76897;SHT30;65856;52.178;21.176;2023-12-22T09:33:08;7.52;60.64
76897;SHT30;65856;52.178;21.176;2023-12-22T09:35:34;7.51;59.97
76897;SHT30;65856;52.178;21.176;2023-12-22T09:38:00;7.50;60.32
76897;SHT30;65856;52.178;21.176;2023-12-22T09:40:26;7.54;60.01
76897;SHT30;65856;52.178;21.176;2023-12-22T09:42:54;7.53;59.47
76897;SHT30;65856;52.178;21.176;2023-12-22T09:45:20;7.51;59.30
76897;SHT30;65856;52.178;21.176;2023-12-22T09:47:47;7.49;59.43
76897;SHT30;65856;52.178;21.176;2023-12-22T09:50:14;7.51;59.56
76897;SHT30;65856;52.178;21.176;2023-12-22T09:52:42;7.60;59.28
76897;SHT30;65856;52.178;21.176;2023-12-22T09:55:13;7.62;59.08
76897;SHT30;65856;52.178;21.176;2023-12-22T09:57:39;7.64;59.11
76897;SHT30;65856;52.178;21.176;2023-12-22T10:00:09;7.65;58.41
76897;SHT30;65856;52.178;21.176;2023-12-22T10:02:38;7.50;58.35
76897;SHT30;65856;52.178;21.176;2023-12-22T10:05:05;7.42;59.97
76897;SHT30;65856;52.178;21.176;2023-12-22T10:07:31;7.50;59.96
76897;SHT30;65856;52.178;21.176;2023-12-22T10:09:58;7.43;58.94
76897;SHT30;65856;52.178;21.176;2023-12-22T10:12:25;7.27;59.08
76897;SHT30;65856;52.178;21.176;2023-12-22T10:14:53;7.15;59.44
76897;SHT30;65856;52.178;21.176;2023-12-22T10:17:19;7.07;59.92
76897;SHT30;65856;52.178;21.176;2023-12-22T10:19:45;6.99;60.21
76897;SHT30;65856;52.178;21.176;2023-12-22T10:22:10;6.89;59.89
76897;SHT30;65856;52.178;21.176;2023-12-22T10:24:39;6.66;60.75
76897;SHT30;65856;52.178;21.176;2023-12-22T10:27:10;6.43;62.47
76897;SHT30;65856;52.178;21.176;2023-12-22T10:29:36;5.95;65.24
76897;SHT30;65856;52.178;21.176;2023-12-22T10:32:02;5.51;66.52
76897;SHT30;65856;52.178;21.176;2023-12-22T10:34:29;5.22;67.31
76897;SHT30;65856;52.178;21.176;2023-12-22T10:36:56;4.83;68.55
76897;SHT30;65856;52.178;21.176;2023-12-22T10:39:26;4.45;69.69
76897;SHT30;65856;52.178;21.176;2023-12-22T10:41:54;4.13;70.81
76897;SHT30;65856;52.178;21.176;2023-12-22T10:44:23;3.86;71.63
76897;SHT30;65856;52.178;21.176;2023-12-22T10:46:51;3.65;72.47
76897;SHT30;65856;52.178;21.176;2023-12-22T10:49:18;3.48;72.93
76897;SHT30;65856;52.178;21.176;2023-12-22T10:51:44;3.28;73.77
76897;SHT30;65856;52.178;21.176;2023-12-22T10:54:10;3.13;74.21
76897;SHT30;65856;52.178;21.176;2023-12-22T10:56:35;3.04;74.57
76897;SHT30;65856;52.178;21.176;2023-12-22T10:59:01;2.95;75.07
76897;SHT30;65856;52.178;21.176;2023-12-22T11:01:28;2.88;75.34
76897;SHT30;65856;52.178;21.176;2023-12-22T11:04:03;2.84;75.64
76897;SHT30;65856;52.178;21.176;2023-12-22T11:06:36;2.79;75.91
76897;SHT30;65856;52.178;21.176;2023-12-22T11:09:06;2.73;76.13
76897;SHT30;65856;52.178;21.176;2023-12-22T11:11:39;2.73;76.42
76897;SHT30;65856;52.178;21.176;2023-12-22T11:14:06;2.76;76.49
76897;SHT30;65856;52.178;21.176;2023-12-22T11:16:33;2.80;76.43
76897;SHT30;65856;52.178;21.176;2023-12-22T11:19:01;2.84;76.59
76897;SHT30;65856;52.178;21.176;2023-12-22T11:21:28;2.93;76.69
76897;SHT30;65856;52.178;21.176;2023-12-22T11:23:55;3.01;76.60
76897;SHT30;65856;52.178;21.176;2023-12-22T11:26:22;3.03;76.54
76897;SHT30;65856;52.178;21.176;2023-12-22T11:28:50;3.05;76.45
76897;SHT30;65856;52.178;21.176;2023-12-22T11:31:17;3.12;76.41
76897;SHT30;65856;52.178;21.176;2023-12-22T11:33:44;3.17;76.29
76897;SHT30;65856;52.178;21.176;2023-12-22T11:36:12;3.18;76.13
76897;SHT30;65856;52.178;21.176;2023-12-22T11:38:39;3.23;76.22
76897;SHT30;65856;52.178;21.176;2023-12-22T11:41:06;3.32;76.29
76897;SHT30;65856;52.178;21.176;2023-12-22T11:43:36;3.43;76.37
76897;SHT30;65856;52.178;21.176;2023-12-22T11:46:03;3.54;76.38
76897;SHT30;65856;52.178;21.176;2023-12-22T11:48:32;3.63;76.32
76897;SHT30;65856;52.178;21.176;2023-12-22T11:50:57;3.67;76.10
76897;SHT30;65856;52.178;21.176;2023-12-22T11:53:23;3.72;76.15
76897;SHT30;65856;52.178;21.176;2023-12-22T11:58:46;3.80;75.94
76897;SHT30;65856;52.178;21.176;2023-12-22T12:01:17;3.78;75.98
76897;SHT30;65856;52.178;21.176;2023-12-22T12:03:53;3.79;76.06
76897;SHT30;65856;52.178;21.176;2023-12-22T12:06:22;3.81;76.08
76897;SHT30;65856;52.178;21.176;2023-12-22T12:09:00;3.81;76.06
76897;SHT30;65856;52.178;21.176;2023-12-22T12:14:27;3.74;76.20
76897;SHT30;65856;52.178;21.176;2023-12-22T12:17:07;3.75;76.26
76897;SHT30;65856;52.178;21.176;2023-12-22T12:19:37;3.75;76.23
76897;SHT30;65856;52.178;21.176;2023-12-22T12:22:03;3.78;76.31
76897;SHT30;65856;52.178;21.176;2023-12-22T12:24:29;3.78;76.31
76897;SHT30;65856;52.178;21.176;2023-12-22T12:26:55;3.78;76.40
76897;SHT30;65856;52.178;21.176;2023-12-22T12:29:21;3.78;76.38
76897;SHT30;65856;52.178;21.176;2023-12-22T12:31:47;3.75;76.33
76897;SHT30;65856;52.178;21.176;2023-12-22T12:34:12;3.75;76.42
76897;SHT30;65856;52.178;21.176;2023-12-22T12:36:39;3.75;76.50
76897;SHT30;65856;52.178;21.176;2023-12-22T12:39:06;3.76;76.54
76897;SHT30;65856;52.178;21.176;2023-12-22T12:41:35;3.76;76.65
76897;SHT30;65856;52.178;21.176;2023-12-22T12:44:06;3.77;76.55
76897;SHT30;65856;52.178;21.176;2023-12-22T12:46:34;3.78;76.69
76897;SHT30;65856;52.178;21.176;2023-12-22T12:49:06;3.80;76.75
76897;SHT30;65856;52.178;21.176;2023-12-22T12:51:37;3.80;76.61
76897;SHT30;65856;52.178;21.176;2023-12-22T12:54:04;3.77;76.63
76897;SHT30;65856;52.178;21.176;2023-12-22T12:56:38;3.73;76.67
76897;SHT30;65856;52.178;21.176;2023-12-22T12:59:08;3.69;76.73
76897;SHT30;65856;52.178;21.176;2023-12-22T13:01:41;3.67;76.97
76897;SHT30;65856;52.178;21.176;2023-12-22T13:04:09;3.67;77.15
76897;SHT30;65856;52.178;21.176;2023-12-22T13:06:35;3.68;77.30
76897;SHT30;65856;52.178;21.176;2023-12-22T13:09:11;3.68;77.35
76897;SHT30;65856;52.178;21.176;2023-12-22T13:11:38;3.65;77.55
76897;SHT30;65856;52.178;21.176;2023-12-22T13:14:05;3.61;77.69
76897;SHT30;65856;52.178;21.176;2023-12-22T13:16:32;3.57;77.88
76897;SHT30;65856;52.178;21.176;2023-12-22T13:18:58;3.55;78.03
76897;SHT30;65856;52.178;21.176;2023-12-22T13:21:25;3.51;78.18
76897;SHT30;65856;52.178;21.176;2023-12-22T13:26:39;3.48;78.57
76897;SHT30;65856;52.178;21.176;2023-12-22T13:29:05;3.49;78.77
76897;SHT30;65856;52.178;21.176;2023-12-22T13:31:32;3.48;78.77
76897;SHT30;65856;52.178;21.176;2023-12-22T13:33:58;3.47;78.96
76897;SHT30;65856;52.178;21.176;2023-12-22T13:36:25;3.46;79.01
76897;SHT30;65856;52.178;21.176;2023-12-22T13:38:50;3.43;79.07
76897;SHT30;65856;52.178;21.176;2023-12-22T13:41:16;3.42;79.06
76897;SHT30;65856;52.178;21.176;2023-12-22T13:43:42;3.41;79.19
76897;SHT30;65856;52.178;21.176;2023-12-22T13:46:09;3.40;79.29
76897;SHT30;65856;52.178;21.176;2023-12-22T13:48:37;3.41;79.40
76897;SHT30;65856;52.178;21.176;2023-12-22T13:51:02;3.39;79.51
76897;SHT30;65856;52.178;21.176;2023-12-22T13:53:28;3.39;79.56
76897;SHT30;65856;52.178;21.176;2023-12-22T13:55:57;3.38;79.69
76897;SHT30;65856;52.178;21.176;2023-12-22T13:58:24;3.36;79.74
76897;SHT30;65856;52.178;21.176;2023-12-22T14:00:50;3.36;79.77
76897;SHT30;65856;52.178;21.176;2023-12-22T14:03:17;3.37;79.83
76897;SHT30;65856;52.178;21.176;2023-12-22T14:05:46;3.36;79.90
76897;SHT30;65856;52.178;21.176;2023-12-22T14:08:17;3.31;79.91
76897;SHT30;65856;52.178;21.176;2023-12-22T14:10:45;3.29;79.98
76897;SHT30;65856;52.178;21.176;2023-12-22T14:13:12;3.27;80.00
76897;SHT30;65856;52.178;21.176;2023-12-22T14:15:38;3.24;80.13
76897;SHT30;65856;52.178;21.176;2023-12-22T14:18:04;3.22;80.22
76897;SHT30;65856;52.178;21.176;2023-12-22T14:20:29;3.23;80.34
76897;SHT30;65856;52.178;21.176;2023-12-22T14:22:55;3.22;80.37
76897;SHT30;65856;52.178;21.176;2023-12-22T14:25:20;3.22;80.48
76897;SHT30;65856;52.178;21.176;2023-12-22T14:27:45;3.24;80.59
76897;SHT30;65856;52.178;21.176;2023-12-22T14:30:11;3.21;80.62
76897;SHT30;65856;52.178;21.176;2023-12-22T14:32:37;3.19;80.73
76897;SHT30;65856;52.178;21.176;2023-12-22T14:35:03;3.19;80.75
76897;SHT30;65856;52.178;21.176;2023-12-22T14:37:28;3.17;80.87
76897;SHT30;65856;52.178;21.176;2023-12-22T14:39:54;3.18;80.88
76897;SHT30;65856;52.178;21.176;2023-12-22T14:42:19;3.14;80.88
76897;SHT30;65856;52.178;21.176;2023-12-22T14:44:45;3.12;80.97
76897;SHT30;65856;52.178;21.176;2023-12-22T14:47:10;3.11;81.03
76897;SHT30;65856;52.178;21.176;2023-12-22T14:49:36;3.08;81.10
76897;SHT30;65856;52.178;21.176;2023-12-22T14:52:10;3.07;81.13
76897;SHT30;65856;52.178;21.176;2023-12-22T14:54:35;3.05;81.21
76897;SHT30;65856;52.178;21.176;2023-12-22T14:57:01;3.03;81.22
76897;SHT30;65856;52.178;21.176;2023-12-22T14:59:26;3.02;81.26
76897;SHT30;65856;52.178;21.176;2023-12-22T15:01:52;3.01;81.40
76897;SHT30;65856;52.178;21.176;2023-12-22T15:04:17;3.00;81.40
76897;SHT30;65856;52.178;21.176;2023-12-22T15:06:45;2.98;81.51
76897;SHT30;65856;52.178;21.176;2023-12-22T15:09:11;2.95;81.50
76897;SHT30;65856;52.178;21.176;2023-12-22T15:11:40;2.92;81.49
76897;SHT30;65856;52.178;21.176;2023-12-22T15:14:07;2.91;81.63
76897;SHT30;65856;52.178;21.176;2023-12-22T15:16:33;2.90;81.70
76897;SHT30;65856;52.178;21.176;2023-12-22T15:18:58;2.90;81.80
76897;SHT30;65856;52.178;21.176;2023-12-22T15:21:23;2.90;81.81
76897;SHT30;65856;52.178;21.176;2023-12-22T15:23:49;2.90;81.83
76897;SHT30;65856;52.178;21.176;2023-12-22T15:26:22;2.91;81.81
76897;SHT30;65856;52.178;21.176;2023-12-22T15:28:50;2.92;81.92
76897;SHT30;65856;52.178;21.176;2023-12-22T15:31:16;2.91;81.94
76897;SHT30;65856;52.178;21.176;2023-12-22T15:33:41;2.89;82.02
76897;SHT30;65856;52.178;21.176;2023-12-22T15:36:08;2.87;82.02
76897;SHT30;65856;52.178;21.176;2023-12-22T15:38:33;2.86;82.10